• Join FlightAware (Why Join?)
  • Login
  • US Flag 
07:06AM EST


 

Airport Tracker/Info


-or-


 

Live Flight TrackerFlight Track Log ✈ EJA922 ✈ 17-Jan-2014 ✈ KBFI - KSJC

Flight Track Log - Related Links

Times and Time Zones

All times are in EST time to prevent confusion due to time zone crossing. See the EJA922 flight status page for this flight to view local times or setup timezone preferences in your user account.

Time Position Orientation Groundspeed Altitude Reporting Facility
EST Latitude Longitude Course Direction KTS MPH feet Rate Location/Type
08:39PM 47.5019 -122.2794 150° Southeast 188 216 1,600  Level Seattle Center
08:39PM 47.4861 -122.2658 150° Southeast 209 241 2,500 3,000 Climbing Seattle Center
08:40PM 47.4456 -122.2289 148° Southeast 239 275 4,700 3,240 Climbing Seattle Center
08:41PM 47.3706 -122.2544 193° South 272 313 8,000 3,060 Climbing Seattle Center
08:42PM 47.3242 -122.3489 234° Southwest 297 342 11,000 2,820 Climbing Seattle Center
08:43PM 47.3042 -122.4783 257° West 325 374 13,800 3,120 Climbing Seattle Center
08:44PM 47.2822 -122.6142 257° West 340 391 17,300 2,940 Climbing Seattle Center
08:45PM 47.2586 -122.7594 257° West 340 391 19,800 2,520 Climbing Seattle Center
08:46PM 47.2336 -122.9069 256° West 365 420 22,500 2,640 Climbing Seattle Center
08:47PM 47.1597 -123.0147 225° Southwest 396 456 25,200 2,520 Climbing Seattle Center
08:48PM 47.0553 -123.0906 206° Southwest 416 479 27,700 2,460 Climbing Seattle Center
08:49PM 46.9506 -123.1658 206° Southwest 420 483 30,200 2,280 Climbing Seattle Center
08:50PM 46.8339 -123.2164 197° South 440 506 32,400 2,100 Climbing Seattle Center
08:51PM 46.7047 -123.2181 181° South 460 529 34,500 2,400 Climbing Seattle Center
08:52PM 46.5775 -123.2231 182° South 460 529 37,400 2,160 Climbing Seattle Center
08:53PM 46.4472 -123.2278 181° South 455 524 38,900 1,200 Climbing Seattle Center
08:54PM 46.3169 -123.2403 184° South 467 537 39,900 840 Climbing Seattle Center
08:55PM 46.1828 -123.2428 181° South 479 551 40,700 540 Climbing Seattle Center
08:56PM 46.0447 -123.2464 181° South 494 568 41,000 120 Climbing Seattle Center
08:57PM 45.9064 -123.2525 182° South 497 572 41,000  Level Seattle Center
08:58PM 45.7678 -123.2583 182° South 498 573 41,000  Level Seattle Center
08:59PM 45.6303 -123.2636 182° South 495 570 41,000  Level Seattle Center
09:00PM 45.4922 -123.2692 182° South 495 570 41,000  Level Seattle Center
09:01PM 45.3547 -123.2733 181° South 494 568 41,000  Level Seattle Center
09:02PM 45.2178 -123.2781 181° South 491 565 41,000  Level Seattle Center
09:03PM 45.0789 -123.2817 181° South 493 567 41,000  Level Seattle Center
09:04PM 44.9394 -123.2867 181° South 495 570 41,000  Level Seattle Center
09:05PM 44.8008 -123.2928 182° South 489 563 41,000  Level Seattle Center
09:06PM 44.6625 -123.2975 181° South 490 564 41,000  Level Seattle Center
09:07PM 44.5258 -123.3028 182° South 490 564 41,000  Level Seattle Center
09:08PM 44.3886 -123.3072 181° South 493 567 41,000  Level Seattle Center
09:09PM 44.2511 -123.3108 181° South 494 568 41,000  Level Seattle Center
09:10PM 44.0878 -123.3175 182° South 491 565 41,000  Level Seattle Center
09:11PM 43.9508 -123.3244 182° South 490 564 41,000  Level Seattle Center
09:12PM 43.8147 -123.3281 181° South 490 564 41,000  Level Seattle Center
09:13PM 43.6761 -123.3342 182° South 495 570 41,000  Level Seattle Center
09:14PM 43.5389 -123.3372 181° South 494 568 41,000  Level Seattle Center
09:15PM 43.4022 -123.3436 182° South 493 567 41,000  Level Seattle Center
09:16PM 43.2653 -123.3486 182° South 492 566 41,000  Level Seattle Center
09:17PM 43.1275 -123.3492 180° South 495 570 41,000  Level Seattle Center
09:18PM 42.9897 -123.3469 179° South 495 570 41,000  Level Seattle Center
09:19PM 42.8517 -123.3439 179° South 495 570 41,000  Level Seattle Center
09:20PM 42.7047 -123.3406 179° South 495 570 41,000  Level Seattle Center
09:21PM 42.5664 -123.3372 179° South 496 571 41,000  Level Seattle Center
09:22PM 42.4294 -123.3347 179° South 495 570 41,000  Level Seattle Center
09:24PM 42.2928 -123.3328 179° South 494 568 41,000  Level Seattle Center
09:25PM 42.1556 -123.3292 179° South 495 570 41,000  Level Seattle Center
09:26PM 42.0181 -123.3272 179° South 495 570 41,000  Level Seattle Center
09:27PM 41.8822 -123.3247 179° South 492 566 41,000  Level Seattle Center
09:28PM 41.7450 -123.3211 179° South 495 570 41,000  Level Seattle Center
09:28PM 41.6033 -123.3203 180° South 492 566 41,000  Level Oakland Center
09:29PM 41.4658 -123.3039 175° South 495 570 41,000  Level Oakland Center
09:30PM 41.3281 -123.2842 174° South 496 571 41,000  Level Oakland Center
09:32PM 41.1908 -123.2675 175° South 496 571 41,000  Level Seattle Center
09:33PM 41.0531 -123.2481 174° South 498 573 41,000  Level Seattle Center
09:34PM 40.9156 -123.2292 174° South 496 571 41,000  Level Seattle Center
09:35PM 40.7744 -123.2119 175° South 499 574 41,000  Level Oakland Center
09:36PM 40.6381 -123.1933 174° South 496 571 41,000  Level Oakland Center
09:37PM 40.5000 -123.1761 175° South 498 573 41,000  Level Oakland Center
09:38PM 40.3628 -123.1575 174° South 499 574 41,000  Level Oakland Center
09:39PM 40.2261 -123.1406 175° South 497 572 41,000  Level Oakland Center
09:40PM 40.0625 -123.1192 174° South 496 571 41,000  Level Oakland Center
09:41PM 39.9256 -123.1008 174° South 499 574 41,000  Level Oakland Center
09:42PM 39.7894 -123.0833 174° South 496 571 41,000  Level Oakland Center
09:43PM 39.6528 -123.0667 175° South 495 570 41,000  Level Oakland Center
09:44PM 39.5161 -123.0497 175° South 497 572 41,000  Level Oakland Center
09:45PM 39.3869 -123.0314 174° South 494 568 41,000  Level Oakland Center
09:46PM 39.2219 -123.0103 174° South 496 571 41,000 -120 Level Oakland Center
09:47PM 39.0856 -122.9925 174° South 492 566 40,800 -1,320 Descending Oakland Center
09:48PM 38.9494 -122.9761 175° South 491 565 38,300 -2,520 Descending Oakland Center
09:49PM 38.8133 -122.9606 175° South 492 566 35,700 -2,520 Descending Oakland Center
09:50PM 38.6839 -122.9436 174° South 469 540 33,200 -2,460 Descending Oakland Center
09:51PM 38.5550 -122.9272 174° South 467 537 30,700 -2,460 Descending Oakland Center
09:52PM 38.4253 -122.9108 174° South 469 540 28,200 -2,460 Descending Oakland Center
09:53PM 38.2919 -122.8956 175° South 479 551 25,700 -2,520 Descending Oakland Center
09:54PM 38.1606 -122.8781 174° South 478 550 23,100 -2,640 Descending Oakland Center
09:55PM 38.0250 -122.8119 159° South 444 511 20,300 -2,520 Descending Oakland Center
09:56PM 37.9339 -122.7125 139° Southeast 439 505 18,000 -2,220 Descending Oakland Center
09:57PM 37.8483 -122.6197 139° Southeast 428 493 15,800 -2,160 Descending Oakland Center
09:58PM 37.7628 -122.5275 140° Southeast 415 478 13,700 -1,920 Descending Oakland Center
09:59PM 37.6769 -122.4358 140° Southeast 410 472 12,000 -840 Descending Oakland Center
10:00PM 37.5936 -122.3475 140° Southeast 400 460 12,000  Level Oakland Center
10:01PM 37.4792 -122.2783 154° Southeast 383 441 12,000 -180 Level Oakland Center
10:02PM 37.3889 -122.2253 155° Southeast 367 422 11,700 -900 Descending Oakland Center
10:03PM 37.3119 -122.1800 155° Southeast 318 366 10,200 -1,680 Descending Oakland Center
10:04PM 37.2661 -122.0972 125° Southeast 291 335 8,400 -1,680 Descending Oakland Center
10:05PM 37.2214 -122.0164 125° Southeast 286 329 6,900 -1,440 Descending Oakland Center
10:06PM 37.1828 -121.9389 122° Southeast 271 312 5,500 -1,800 Descending Oakland Center
10:07PM 37.2147 -121.8703 60° Northeast 242 278 3,300 -1,680 Descending Oakland Center
10:08PM 37.2569 -121.8447 26° Northeast 211 243 2,200 -780 Descending Oakland Center
10:09PM 37.2947 -121.8575 345° North 168 193 1,800 -660 Descending Oakland Center
10:10PM 37.3261 -121.8892 321° Northwest 152 175 900 -840 Descending Oakland Center
10:11PM 37.3522 -121.9192 318° Northwest 139 160 200 -720 Descending Oakland Center